createdAt,value
2018-05-12T00:01:57.277Z,35.40
2018-05-12T00:04:24.772Z,35.30
2018-05-12T00:06:53.042Z,35.40
2018-05-12T00:09:20.557Z,35.40
2018-05-12T00:11:48.066Z,35.50
2018-05-12T00:14:15.540Z,35.60
2018-05-12T00:16:43.029Z,35.60
2018-05-12T00:19:10.588Z,35.70
2018-05-12T00:21:38.089Z,35.70
2018-05-12T00:24:06.330Z,35.90
2018-05-12T00:26:33.828Z,36.00
2018-05-12T00:29:01.305Z,35.90
2018-05-12T00:31:28.792Z,36.00
2018-05-12T00:33:57.039Z,36.10
2018-05-12T00:36:24.531Z,36.20
2018-05-12T00:38:52.091Z,36.20
2018-05-12T00:41:19.598Z,36.20
2018-05-12T00:43:47.058Z,36.30
2018-05-12T00:46:15.323Z,37.10
2018-05-12T00:48:42.828Z,36.50
2018-05-12T00:51:11.080Z,36.70
2018-05-12T00:53:38.556Z,36.70
2018-05-12T00:56:06.081Z,36.70
2018-05-12T00:58:33.545Z,36.80
2018-05-12T01:01:01.085Z,36.70
2018-05-12T01:03:29.320Z,36.80
2018-05-12T01:05:56.814Z,36.90
2018-05-12T01:08:24.290Z,36.90
2018-05-12T01:10:51.930Z,36.90
2018-05-12T01:13:19.439Z,37.00
2018-05-12T01:15:46.922Z,37.00
2018-05-12T01:18:14.442Z,37.10
2018-05-12T01:20:41.912Z,37.00
2018-05-12T01:23:09.403Z,37.20
2018-05-12T01:25:36.987Z,37.30
2018-05-12T01:28:04.479Z,37.50
2018-05-12T01:30:31.983Z,37.50
2018-05-12T01:33:00.232Z,37.70
2018-05-12T01:35:27.688Z,37.80
2018-05-12T01:37:55.227Z,37.80
2018-05-12T01:40:22.722Z,37.80
2018-05-12T01:42:50.203Z,37.80
2018-05-12T01:45:17.663Z,37.80
2018-05-12T01:47:45.151Z,37.90
2018-05-12T01:50:12.661Z,37.90
2018-05-12T01:52:40.917Z,38.00
2018-05-12T01:55:08.383Z,38.00
2018-05-12T01:57:35.868Z,38.10
2018-05-12T02:00:03.348Z,38.00
2018-05-12T02:02:30.847Z,38.00
2018-05-12T02:04:58.314Z,37.60
2018-05-12T02:07:26.558Z,37.90
2018-05-12T02:09:54.037Z,37.90
2018-05-12T02:12:21.547Z,37.90
2018-05-12T02:14:49.040Z,37.90
2018-05-12T02:17:16.504Z,37.80
2018-05-12T02:19:43.987Z,37.80
2018-05-12T02:22:11.456Z,37.90
2018-05-12T02:24:38.964Z,38.00
2018-05-12T02:27:06.467Z,38.20
2018-05-12T02:29:34.715Z,38.40
2018-05-12T02:32:02.185Z,38.50
2018-05-12T02:34:29.705Z,38.40
2018-05-12T02:36:57.172Z,38.50
2018-05-12T02:39:24.737Z,38.50
2018-05-12T02:41:53.013Z,38.60
2018-05-12T02:44:20.621Z,38.60
2018-05-12T02:46:48.092Z,38.10
2018-05-12T02:49:15.598Z,38.70
2018-05-12T02:51:43.067Z,38.80
2018-05-12T02:54:11.376Z,38.80
2018-05-12T02:56:38.939Z,38.80
2018-05-12T02:59:06.534Z,38.80
2018-05-12T03:01:34.783Z,38.70
2018-05-12T03:04:02.286Z,38.90
2018-05-12T03:06:29.751Z,38.70
2018-05-12T03:08:57.319Z,38.80
2018-05-12T03:11:24.749Z,38.90
2018-05-12T03:13:52.246Z,39.00
2018-05-12T03:16:20.564Z,39.00
2018-05-12T03:18:48.050Z,39.10
2018-05-12T03:21:16.296Z,39.10
2018-05-12T03:23:43.796Z,39.20
2018-05-12T03:26:12.986Z,39.30
2018-05-12T03:28:40.472Z,39.40
2018-05-12T03:31:08.007Z,39.30
2018-05-12T03:33:35.556Z,39.30
2018-05-12T03:36:03.017Z,39.30
2018-05-12T03:38:31.268Z,39.40
2018-05-12T03:40:58.737Z,39.50
2018-05-12T03:43:26.218Z,39.50
2018-05-12T03:45:53.711Z,39.50
2018-05-12T03:48:21.977Z,39.60
2018-05-12T03:50:50.226Z,38.70
2018-05-12T03:53:17.697Z,39.80
2018-05-12T03:55:45.175Z,39.70
2018-05-12T03:58:12.683Z,39.80
2018-05-12T04:00:40.252Z,39.90
2018-05-12T04:03:07.744Z,39.90
2018-05-12T04:05:47.814Z,40.00
2018-05-12T04:08:28.831Z,40.10
2018-05-12T04:11:08.926Z,40.00
2018-05-12T04:13:36.405Z,40.10
2018-05-12T04:16:03.896Z,40.00
2018-05-12T04:18:31.376Z,40.10
2018-05-12T04:20:58.886Z,40.20
2018-05-12T04:23:27.090Z,40.40
2018-05-12T04:25:54.748Z,40.40
2018-05-12T04:28:22.228Z,40.40
2018-05-12T04:30:49.850Z,40.30
2018-05-12T04:33:17.403Z,40.30
2018-05-12T04:35:44.900Z,40.90
2018-05-12T04:38:12.392Z,40.30
2018-05-12T04:40:39.879Z,40.40
2018-05-12T04:43:07.346Z,40.40
2018-05-12T04:45:34.833Z,40.50
2018-05-12T04:48:02.295Z,40.60
2018-05-12T04:50:29.776Z,40.70
2018-05-12T04:52:57.232Z,40.90
2018-05-12T04:55:24.736Z,41.00
2018-05-12T04:57:52.338Z,41.10
2018-05-12T05:00:20.633Z,41.10
2018-05-12T05:02:48.882Z,41.20
2018-05-12T05:05:16.373Z,41.20
2018-05-12T05:07:43.839Z,41.10
2018-05-12T05:10:11.323Z,41.20
2018-05-12T05:12:38.785Z,41.20
2018-05-12T05:15:06.266Z,41.30
2018-05-12T05:17:33.976Z,41.40
2018-05-12T05:20:01.493Z,41.40
2018-05-12T05:22:28.967Z,41.40
2018-05-12T05:24:56.458Z,41.40
2018-05-12T05:27:24.703Z,41.60
2018-05-12T05:29:52.303Z,41.70
2018-05-12T05:32:19.789Z,41.70
2018-05-12T05:34:48.046Z,41.80
2018-05-12T05:37:15.523Z,41.80
2018-05-12T05:39:43.011Z,41.80
2018-05-12T05:42:10.497Z,41.80
2018-05-12T05:44:38.747Z,42.00
2018-05-12T05:47:06.230Z,42.00
2018-05-12T05:49:33.737Z,41.90
2018-05-12T05:52:01.969Z,42.10
2018-05-12T05:54:29.442Z,42.10
2018-05-12T05:56:56.906Z,42.10
2018-05-12T05:59:24.401Z,42.30
2018-05-12T06:01:51.925Z,42.30
2018-05-12T06:04:19.423Z,42.30
2018-05-12T06:06:46.936Z,42.30
2018-05-12T06:09:14.407Z,42.40
2018-05-12T06:11:41.915Z,42.40
2018-05-12T06:14:09.385Z,42.90
2018-05-12T06:16:36.863Z,42.50
2018-05-12T06:19:04.335Z,42.50
2018-05-12T06:21:31.807Z,42.60
2018-05-12T06:23:59.271Z,42.60
2018-05-12T06:26:26.877Z,42.60
2018-05-12T06:28:54.515Z,42.60
2018-05-12T06:31:22.033Z,42.70
2018-05-12T06:33:49.507Z,42.70
2018-05-12T06:36:17.000Z,42.70
2018-05-12T06:38:45.236Z,42.80
2018-05-12T06:41:12.735Z,42.70
2018-05-12T06:43:40.928Z,42.80
2018-05-12T06:46:08.441Z,42.70
2018-05-12T06:48:35.955Z,42.80
2018-05-12T06:51:03.461Z,42.80
2018-05-12T06:53:31.692Z,42.80
2018-05-12T06:55:59.168Z,42.80
2018-05-12T06:58:26.672Z,42.90
2018-05-12T07:00:54.178Z,42.90
2018-05-12T07:03:21.844Z,42.70
2018-05-12T07:05:49.348Z,42.80
2018-05-12T07:08:16.864Z,42.80
2018-05-12T07:10:44.363Z,42.80
2018-05-12T07:13:11.837Z,42.90
2018-05-12T07:15:40.096Z,43.10
2018-05-12T07:18:07.563Z,43.20
2018-05-12T07:20:35.064Z,43.40
2018-05-12T07:23:03.308Z,44.00
2018-05-12T07:25:30.795Z,44.00
2018-05-12T07:27:58.263Z,44.40
2018-05-12T07:30:25.762Z,44.60
2018-05-12T07:32:54.003Z,45.20
2018-05-12T07:35:21.600Z,45.10
2018-05-12T07:37:49.173Z,45.30
2018-05-12T07:40:17.435Z,45.40
2018-05-12T07:42:44.904Z,45.20
2018-05-12T07:45:12.383Z,45.40
2018-05-12T07:47:39.847Z,45.40
2018-05-12T07:50:07.403Z,45.40
2018-05-12T07:52:34.871Z,44.80
2018-05-12T07:55:02.355Z,44.50
2018-05-12T07:57:29.821Z,44.20
2018-05-12T07:59:57.867Z,43.70
2018-05-12T08:02:25.398Z,43.30
2018-05-12T08:04:52.887Z,42.70
2018-05-12T08:07:20.408Z,42.70
2018-05-12T08:09:47.900Z,41.70
2018-05-12T08:12:15.396Z,41.40
2018-05-12T08:14:42.873Z,41.30
2018-05-12T08:17:10.359Z,41.30
2018-05-12T08:19:38.598Z,40.40
2018-05-12T08:22:06.084Z,40.20
2018-05-12T08:24:33.547Z,39.90
2018-05-12T08:27:01.048Z,39.50
2018-05-12T08:29:28.538Z,39.10
2018-05-12T08:31:56.797Z,38.50
2018-05-12T08:34:24.307Z,38.30
2018-05-12T08:36:52.569Z,37.80
2018-05-12T08:39:20.042Z,37.70
2018-05-12T08:41:47.543Z,37.40
2018-05-12T08:44:15.003Z,36.80
2018-05-12T08:46:43.482Z,36.10
2018-05-12T08:49:10.957Z,36.00
2018-05-12T08:51:39.216Z,35.40
2018-05-12T08:54:06.682Z,35.20
2018-05-12T08:56:34.217Z,35.00
2018-05-12T08:59:01.754Z,34.50
2018-05-12T09:01:29.327Z,34.30
2018-05-12T09:03:56.793Z,33.90
2018-05-12T09:06:24.308Z,33.70
2018-05-12T09:08:51.827Z,33.60
2018-05-12T09:11:19.435Z,33.10
2018-05-12T09:13:47.742Z,32.10
2018-05-12T09:16:15.372Z,31.90
2018-05-12T09:18:43.639Z,31.70
2018-05-12T09:21:11.173Z,31.50
2018-05-12T09:23:38.686Z,31.50
2018-05-12T09:26:06.173Z,31.60
2018-05-12T09:28:33.635Z,30.10
2018-05-12T09:31:01.115Z,29.70
2018-05-12T09:33:28.588Z,29.40
2018-05-12T09:35:56.108Z,29.20
2018-05-12T09:38:23.585Z,29.10
2018-05-12T09:40:51.071Z,28.80
2018-05-12T09:43:18.551Z,28.50
2018-05-12T09:45:46.035Z,28.30
2018-05-12T09:48:13.497Z,28.00
2018-05-12T09:50:40.979Z,27.50
2018-05-12T09:53:08.468Z,27.20
2018-05-12T09:55:35.931Z,26.80
2018-05-12T09:58:03.423Z,26.50
2018-05-12T10:00:31.659Z,25.50
2018-05-12T10:02:59.920Z,25.00
2018-05-12T10:05:27.414Z,24.60
2018-05-12T10:07:54.905Z,24.70
2018-05-12T10:10:22.407Z,24.30
2018-05-12T10:12:50.658Z,24.90
2018-05-12T10:15:18.151Z,24.80
2018-05-12T10:17:45.636Z,24.80
2018-05-12T10:20:13.146Z,24.30
2018-05-12T10:22:40.667Z,24.30
2018-05-12T10:25:08.145Z,24.40
2018-05-12T10:27:35.636Z,24.40
2018-05-12T10:30:03.870Z,24.30
2018-05-12T10:32:31.352Z,24.20
2018-05-12T10:34:58.844Z,24.20
2018-05-12T10:37:26.336Z,23.20
2018-05-12T10:39:53.914Z,22.50
2018-05-12T10:42:21.437Z,22.00
2018-05-12T10:44:48.937Z,22.10
2018-05-12T10:47:16.460Z,22.40
2018-05-12T10:49:43.932Z,22.30
2018-05-12T10:52:11.431Z,22.20
2018-05-12T10:54:38.906Z,22.30
2018-05-12T10:57:06.389Z,22.00
2018-05-12T10:59:33.903Z,21.80
2018-05-12T11:02:01.444Z,21.60
2018-05-12T11:04:28.871Z,21.50
2018-05-12T11:06:56.399Z,21.70
2018-05-12T11:09:23.877Z,21.70
2018-05-12T11:11:51.394Z,21.70
2018-05-12T11:14:19.660Z,21.80
2018-05-12T11:16:47.137Z,21.70
2018-05-12T11:19:14.700Z,21.50
2018-05-12T11:21:42.311Z,21.60
2018-05-12T11:24:09.708Z,21.90
2018-05-12T11:26:37.339Z,22.20
2018-05-12T11:29:04.827Z,22.30
2018-05-12T11:31:33.840Z,22.60
2018-05-12T11:34:02.098Z,22.90
2018-05-12T11:36:29.583Z,22.80
2018-05-12T11:38:57.838Z,22.40
2018-05-12T11:41:25.336Z,22.30
2018-05-12T11:43:52.826Z,22.30
2018-05-12T11:46:20.310Z,22.00
2018-05-12T11:48:48.558Z,21.00
2018-05-12T11:51:16.036Z,20.90
2018-05-12T11:53:44.287Z,22.00
2018-05-12T11:56:11.760Z,21.40
2018-05-12T11:58:39.270Z,21.40
2018-05-12T12:01:06.736Z,21.60
2018-05-12T12:03:34.234Z,21.60
2018-05-12T12:06:01.701Z,21.30
2018-05-12T12:08:29.203Z,21.00
2018-05-12T12:10:57.633Z,21.30
2018-05-12T12:13:25.177Z,20.70
2018-05-12T12:15:52.666Z,20.90
2018-05-12T12:18:20.178Z,20.90
2018-05-12T12:20:47.660Z,20.70
2018-05-12T12:23:15.131Z,20.30
2018-05-12T12:25:42.609Z,20.20
2018-05-12T12:28:10.847Z,19.00
2018-05-12T12:30:38.344Z,18.90
2018-05-12T12:33:11.556Z,18.50
2018-05-12T12:35:39.036Z,18.20
2018-05-12T12:38:06.524Z,18.10
2018-05-12T12:40:34.776Z,18.40
2018-05-12T12:43:02.268Z,18.30
2018-05-12T12:45:29.759Z,18.90
2018-05-12T12:47:58.039Z,19.50
2018-05-12T12:50:26.305Z,20.30
2018-05-12T12:52:53.815Z,19.70
2018-05-12T12:55:21.284Z,19.70
2018-05-12T12:57:48.788Z,19.50
2018-05-12T13:00:16.259Z,19.50
2018-05-12T13:02:43.735Z,19.10
2018-05-12T13:05:11.251Z,18.80
2018-05-12T13:07:39.507Z,17.70
2018-05-12T13:10:07.043Z,17.60
2018-05-12T13:12:34.549Z,17.40
2018-05-12T13:15:02.021Z,17.60
2018-05-12T13:17:29.563Z,17.70
2018-05-12T13:19:57.862Z,17.90
2018-05-12T13:22:25.348Z,17.80
2018-05-12T13:24:52.857Z,18.10
2018-05-12T13:27:21.113Z,18.40
2018-05-12T13:29:48.590Z,18.30
2018-05-12T13:32:16.143Z,18.60
2018-05-12T13:34:44.323Z,18.90
2018-05-12T13:37:11.816Z,18.80
2018-05-12T13:39:39.358Z,18.90
2018-05-12T13:42:06.849Z,18.40
2018-05-12T13:44:34.339Z,18.00
2018-05-12T13:47:01.829Z,17.80
2018-05-12T13:49:29.305Z,17.60
2018-05-12T13:51:57.676Z,17.50
2018-05-12T13:54:25.228Z,17.40
2018-05-12T13:56:52.719Z,17.50
2018-05-12T13:59:20.188Z,17.60
2018-05-12T14:01:47.665Z,17.50
2018-05-12T14:04:15.148Z,17.30
2018-05-12T14:06:43.379Z,16.40
2018-05-12T14:09:10.868Z,16.30
2018-05-12T14:11:38.360Z,16.20
2018-05-12T14:14:05.843Z,16.20
2018-05-12T14:16:33.303Z,16.30
2018-05-12T14:19:00.890Z,16.60
2018-05-12T14:21:29.112Z,16.90
2018-05-12T14:23:56.634Z,16.80
2018-05-12T14:26:24.178Z,16.80
2018-05-12T14:28:51.646Z,16.90
2018-05-12T14:31:19.193Z,16.80
2018-05-12T14:33:46.677Z,16.40
2018-05-12T14:36:14.136Z,16.20
2018-05-12T14:38:41.624Z,16.10
2018-05-12T14:41:09.265Z,16.10
2018-05-12T14:43:36.764Z,16.10
2018-05-12T14:46:04.248Z,15.90
2018-05-12T14:48:31.724Z,15.90
2018-05-12T14:50:59.193Z,16.50
2018-05-12T14:53:26.692Z,16.10
2018-05-12T14:55:54.972Z,16.00
2018-05-12T14:58:22.475Z,16.00
2018-05-12T15:00:50.721Z,16.40
2018-05-12T15:03:19.103Z,16.70
2018-05-12T15:05:46.572Z,16.70
2018-05-12T15:08:14.058Z,17.00
2018-05-12T15:10:41.532Z,17.20
2018-05-12T15:13:09.011Z,17.40
2018-05-12T15:15:36.472Z,17.40
2018-05-12T15:18:03.974Z,17.30
2018-05-12T15:20:31.435Z,17.30
2018-05-12T15:22:58.940Z,17.30
2018-05-12T15:25:26.445Z,17.30
2018-05-12T15:27:53.951Z,17.30
2018-05-12T15:30:22.213Z,17.50
2018-05-12T15:32:49.720Z,17.40
2018-05-12T15:35:17.955Z,17.70
2018-05-12T15:37:45.452Z,17.70
2018-05-12T15:40:12.919Z,17.70
2018-05-12T15:42:40.428Z,17.90
2018-05-12T15:45:07.899Z,17.90
2018-05-12T15:47:36.159Z,18.10
2018-05-12T15:50:03.647Z,18.00
2018-05-12T15:52:31.163Z,18.20
2018-05-12T15:54:58.696Z,18.30
2018-05-12T15:57:26.225Z,18.40
2018-05-12T15:59:53.728Z,18.60
2018-05-12T16:02:21.206Z,18.60
2018-05-12T16:04:48.715Z,18.70
2018-05-12T16:07:16.173Z,18.50
2018-05-12T16:09:43.677Z,18.40
2018-05-12T16:12:11.174Z,18.80
2018-05-12T16:14:38.736Z,18.30
2018-05-12T16:17:06.307Z,18.30
2018-05-12T16:19:33.779Z,18.40
2018-05-12T16:22:01.268Z,18.30
2018-05-12T16:24:28.813Z,18.40
2018-05-12T16:26:56.288Z,18.40
2018-05-12T16:29:23.808Z,18.60
2018-05-12T16:31:52.044Z,18.80
2018-05-12T16:34:19.792Z,18.70
2018-05-12T16:36:47.284Z,18.80
2018-05-12T16:39:14.797Z,19.00
2018-05-12T16:41:42.267Z,19.00
2018-05-12T16:44:09.773Z,19.20
2018-05-12T16:46:37.263Z,19.30
2018-05-12T16:49:04.786Z,19.40
2018-05-12T16:51:32.258Z,19.60
2018-05-12T16:54:00.577Z,20.30
2018-05-12T16:56:28.036Z,19.80
2018-05-12T16:58:56.298Z,20.10
2018-05-12T17:01:23.771Z,20.10
2018-05-12T17:03:51.261Z,20.10
2018-05-12T17:06:19.861Z,20.40
2018-05-12T17:08:47.326Z,20.40
2018-05-12T17:11:15.580Z,20.60
2018-05-12T17:13:43.359Z,20.60
2018-05-12T17:16:11.705Z,20.70
2018-05-12T17:18:39.261Z,20.80
2018-05-12T17:21:06.790Z,20.90
2018-05-12T17:23:34.278Z,21.00
2018-05-12T17:26:01.775Z,21.10
2018-05-12T17:28:29.275Z,21.20
2018-05-12T17:30:56.729Z,21.30
2018-05-12T17:33:24.223Z,21.40
2018-05-12T17:35:51.701Z,21.60
2018-05-12T17:38:19.184Z,21.60
2018-05-12T17:40:46.656Z,21.80
2018-05-12T17:43:14.480Z,21.90
2018-05-12T17:45:42.056Z,22.00
2018-05-12T17:48:09.534Z,22.10
2018-05-12T17:50:37.036Z,22.20
2018-05-12T17:53:04.688Z,22.30
2018-05-12T17:55:32.321Z,22.50
2018-05-12T17:57:59.728Z,22.50
2018-05-12T18:00:27.317Z,22.60
2018-05-12T18:02:54.851Z,22.80
2018-05-12T18:05:23.125Z,23.00
2018-05-12T18:07:52.202Z,23.10
2018-05-12T18:10:19.728Z,23.20
2018-05-12T18:12:47.967Z,23.30
2018-05-12T18:15:15.480Z,23.30
2018-05-12T18:17:43.728Z,23.50
2018-05-12T18:20:11.209Z,23.50
2018-05-12T18:22:38.680Z,23.60
2018-05-12T18:25:06.164Z,23.60
2018-05-12T18:27:33.624Z,23.70
2018-05-12T18:30:01.141Z,23.80
2018-05-12T18:32:28.619Z,24.00
2018-05-12T18:34:56.170Z,24.10
2018-05-12T18:37:24.407Z,24.30
2018-05-12T18:39:51.967Z,24.30
2018-05-12T18:42:19.440Z,24.40
2018-05-12T18:44:46.930Z,24.50
2018-05-12T18:47:14.402Z,24.60
2018-05-12T18:49:41.983Z,24.70
2018-05-12T18:52:09.451Z,24.80
2018-05-12T18:54:36.953Z,24.90
2018-05-12T18:57:05.175Z,25.10
2018-05-12T18:59:32.664Z,25.20
2018-05-12T19:02:00.346Z,25.20
2018-05-12T19:04:27.829Z,25.40
2018-05-12T19:06:55.295Z,25.50
2018-05-12T19:09:22.783Z,25.70
2018-05-12T19:11:50.250Z,25.70
2018-05-12T19:14:17.752Z,25.90
2018-05-12T19:16:46.024Z,26.10
2018-05-12T19:19:13.531Z,26.20
2018-05-12T19:21:41.271Z,26.20
2018-05-12T19:24:09.535Z,26.40
2018-05-12T19:26:37.335Z,26.50
2018-05-12T19:29:04.844Z,26.60
2018-05-12T19:31:32.336Z,26.60
2018-05-12T19:33:59.830Z,26.70
2018-05-12T19:36:29.178Z,26.80
2018-05-12T19:38:56.668Z,26.80
2018-05-12T19:41:34.528Z,26.90
2018-05-12T19:44:02.053Z,27.00
2018-05-12T19:46:29.552Z,27.10
2018-05-12T19:48:57.036Z,27.20
2018-05-12T19:51:24.531Z,27.20
2018-05-12T19:53:51.998Z,27.30
2018-05-12T19:56:19.516Z,27.30
2018-05-12T19:58:47.018Z,27.40
2018-05-12T20:01:15.269Z,27.50
2018-05-12T20:03:42.754Z,27.60
2018-05-12T20:06:10.668Z,27.60
2018-05-12T20:08:38.145Z,27.70
2018-05-12T20:11:05.664Z,27.70
2018-05-12T20:13:33.173Z,27.80
2018-05-12T20:16:01.280Z,27.80
2018-05-12T20:18:29.481Z,28.00
2018-05-12T20:20:56.970Z,28.00
2018-05-12T20:23:24.431Z,28.00
2018-05-12T20:25:51.925Z,28.10
2018-05-12T20:28:19.405Z,28.20
2018-05-12T20:30:46.905Z,28.30
2018-05-12T20:33:14.371Z,28.30
2018-05-12T20:35:42.932Z,28.50
2018-05-12T20:38:10.416Z,28.50
2018-05-12T20:40:37.907Z,28.50
2018-05-12T20:43:06.168Z,28.60
2018-05-12T20:45:33.703Z,28.70
2018-05-12T20:48:02.046Z,28.80
2018-05-12T20:50:30.303Z,28.50
2018-05-12T20:52:57.774Z,28.90
2018-05-12T20:55:25.267Z,28.90
2018-05-12T20:57:53.724Z,29.00
2018-05-12T21:00:21.233Z,29.10
2018-05-12T21:02:48.699Z,29.10
2018-05-12T21:05:16.219Z,29.10
2018-05-12T21:07:43.715Z,29.20
2018-05-12T21:10:11.220Z,29.20
2018-05-12T21:12:39.529Z,29.30
2018-05-12T21:15:07.804Z,29.40
2018-05-12T21:17:35.284Z,29.40
2018-05-12T21:20:03.632Z,29.50
2018-05-12T21:22:31.100Z,29.40
2018-05-12T21:24:58.585Z,29.40
2018-05-12T21:27:26.050Z,29.50
2018-05-12T21:29:53.512Z,29.60
2018-05-12T21:32:21.046Z,29.60
2018-05-12T21:34:48.548Z,29.60
2018-05-12T21:37:16.160Z,29.60
2018-05-12T21:39:43.634Z,29.60
2018-05-12T21:42:11.163Z,29.70
2018-05-12T21:44:38.646Z,29.70
2018-05-12T21:47:06.948Z,29.80
2018-05-12T21:49:34.436Z,29.80
2018-05-12T21:52:02.064Z,29.80
2018-05-12T21:54:29.531Z,29.80
2018-05-12T21:56:57.031Z,29.90
2018-05-12T21:59:24.524Z,29.80
2018-05-12T22:01:52.011Z,29.90
2018-05-12T22:04:20.244Z,30.00
2018-05-12T22:06:47.752Z,30.00
2018-05-12T22:09:15.229Z,30.00
2018-05-12T22:11:42.971Z,30.10
2018-05-12T22:14:10.431Z,30.10
2018-05-12T22:16:38.085Z,30.20
2018-05-12T22:19:05.579Z,30.20
2018-05-12T22:21:33.092Z,30.30
2018-05-12T22:24:00.567Z,30.30
2018-05-12T22:26:28.071Z,30.40
2018-05-12T22:28:55.559Z,30.40
2018-05-12T22:31:23.048Z,30.50
2018-05-12T22:33:51.435Z,30.60
2018-05-12T22:36:18.929Z,30.60
2018-05-12T22:38:46.400Z,30.60
2018-05-12T22:41:13.910Z,30.70
2018-05-12T22:43:41.380Z,30.80
2018-05-12T22:46:08.873Z,30.90
2018-05-12T22:48:36.329Z,30.90
2018-05-12T22:51:04.668Z,31.00
2018-05-12T22:53:32.161Z,30.90
2018-05-12T22:55:59.718Z,31.00
2018-05-12T22:58:27.188Z,31.00
2018-05-12T23:00:54.679Z,31.10
2018-05-12T23:03:22.305Z,31.20
2018-05-12T23:05:49.793Z,31.70
2018-05-12T23:08:17.270Z,31.30
2018-05-12T23:10:44.756Z,31.40
2018-05-12T23:13:12.233Z,31.50
2018-05-12T23:15:39.797Z,31.60
2018-05-12T23:18:07.207Z,31.70
2018-05-12T23:20:34.702Z,31.70
2018-05-12T23:23:02.175Z,31.80
2018-05-12T23:25:29.884Z,31.80
2018-05-12T23:27:57.370Z,31.90
2018-05-12T23:30:25.606Z,31.90
2018-05-12T23:32:53.098Z,32.00
2018-05-12T23:35:20.592Z,31.90
2018-05-12T23:37:48.189Z,32.00
2018-05-12T23:40:15.704Z,32.00
2018-05-12T23:42:43.192Z,32.10
2018-05-12T23:45:10.672Z,32.00
2018-05-12T23:47:38.163Z,32.10
2018-05-12T23:50:06.386Z,32.20
2018-05-12T23:52:33.875Z,32.20
2018-05-12T23:55:01.343Z,32.20
2018-05-12T23:57:28.830Z,32.20
2018-05-12T23:59:56.300Z,32.20
